CST,Max TemperatureF,Mean TemperatureF,Min TemperatureF,Max Dew PointF,MeanDew PointF,Min DewpointF,Max Humidity, Mean Humidity, Min Humidity, Max Sea Level PressureIn, Mean Sea Level PressureIn, Min Sea Level PressureIn, Max VisibilityMiles, Mean VisibilityMiles, Min VisibilityMiles, Max Wind SpeedMPH, Mean Wind SpeedMPH, Max Gust SpeedMPH,PrecipitationIn, CloudCover, Events, WindDirDegrees
2012-11-1,59,44,28,39,32,25,87,69,41,29.99,29.92,29.86,10,10,7,20,1,25,0.00,3,,306
2012-11-2,46,35,24,34,29,21,93,75,50,30.14,30.08,30.00,10,10,10,5,0,,0.00,0,,50
2012-11-3,48,39,30,36,33,28,93,75,58,30.22,30.19,30.13,10,10,7,6,0,,0.00,6,Rain,110
2012-11-4,48,38,28,39,35,27,93,82,66,30.26,30.21,30.16,10,9,5,0,0,,0.00,7,,-1
2012-11-5,48,37,26,37,32,25,93,76,50,30.20,30.15,30.09,10,10,7,9,0,,0.00,4,,78
2012-11-6,44,37,30,43,36,28,93,88,81,30.11,29.92,29.83,10,8,1,10,1,18,0.25,8,Rain,276
2012-11-7,44,42,39,37,37,34,93,82,70,30.15,30.08,29.91,10,10,7,7,0,,0.00,8,,340
2012-11-8,53,43,33,41,37,32,93,81,62,30.16,30.09,30.01,10,9,4,14,3,22,0.00,1,,167
2012-11-9,57,47,37,46,43,34,93,80,67,30.03,29.96,29.90,10,8,4,9,1,16,0.00,5,Rain,101
2012-11-10,71,61,51,59,54,46,94,76,56,29.91,29.78,29.68,10,9,7,22,8,31,0.00,2,,151
2012-11-11,64,46,28,55,43,23,94,85,56,30.04,29.82,29.68,10,9,2,22,11,30,1.20,7,Rain,226
2012-11-12,32,26,21,25,21,18,86,78,69,30.37,30.18,30.03,10,10,10,5,0,,0.00,5,,260
2012-11-13,42,30,19,28,23,16,93,77,52,30.48,30.42,30.37,10,10,10,4,0,,0.00,0,,200
2012-11-14,53,43,33,37,32,28,87,73,47,30.42,30.36,30.31,10,10,10,7,0,,0.00,2,,140
2012-11-15,55,42,30,37,32,28,93,77,47,30.37,30.31,30.25,10,10,4,13,1,,0.00,1,,213
2012-11-16,53,40,26,39,32,25,100,82,54,30.46,30.43,30.38,10,8,3,6,0,,0.00,0,,27
2012-11-17,55,42,28,39,33,27,100,76,47,30.47,30.42,30.37,10,7,2,16,4,18,0.00,0,,146
2012-11-18,57,45,33,39,36,30,87,71,44,30.38,30.30,30.24,10,8,5,13,9,18,0.00,0,,144
2012-11-19,55,50,44,48,42,37,93,79,67,30.24,30.14,30.08,10,9,5,16,7,20,0.00,7,,153
2012-11-20,53,44,35,48,42,36,100,93,82,30.20,30.14,30.06,7,2,0,6,2,,0.00,7,Fog-Snow,299
2012-11-21,62,48,33,52,41,32,100,85,59,30.19,30.11,30.00,10,5,0,13,5,16,0.00,3,Fog,167
2012-11-22,62,50,39,50,42,32,87,74,59,29.99,29.87,29.73,10,10,10,28,13,40,0.00,2,,213
2012-11-23,37,28,19,32,19,16,86,71,59,30.31,30.19,29.99,10,10,10,32,20,46,0.00,4,,300
2012-11-24,30,22,15,23,18,12,93,78,64,30.30,30.15,29.88,10,10,10,13,5,,0.00,2,,217
2012-11-25,39,30,21,28,25,18,93,75,60,30.13,29.95,29.84,10,10,10,13,5,,0.00,1,,311
2012-11-26,30,22,14,25,17,10,93,74,59,30.41,30.29,30.14,10,10,10,16,7,22,0.00,1,,324
2012-11-27,33,21,10,19,14,7,92,69,47,30.41,30.32,30.23,10,10,7,12,3,,0.00,3,,209
2012-11-28,44,30,17,27,21,16,93,71,39,30.38,30.30,30.21,10,10,5,9,3,,0.00,0,,195
2012-11-29,51,38,26,36,30,23,93,78,54,30.21,30.09,30.01,10,8,5,9,5,,0.00,1,,157
2012-11-30,48,37,26,41,34,25,93,86,71,30.13,30.07,30.01,7,5,2,9,3,16,0.00,1,,56